Worthington, MN

4:14 AM CST on November 26, 2014 (GMT -0600)
Worthington Municipal | Change Station
CLOSE
Current Station
Airport
Location: Worthington,
Elevation: 1575 ft
Nearby Weather Stations

Elev 1575 ft 43.66 °N, 95.58 °W | Updated 19 minutes ago

Overcast
Overcast
27 °F
Feels Like 18 °F
N
8
Wind Variable Wind from East

Today
High -- | Low -- °F
--% Chance of Precip.
Yesterday
High -- | Low -- °F
Precip. -- in
7:30 AM 4:49 PM
Waxing Crescent, 18% visible
Pressure 29.87 in
Visibility 10.0 miles
Clouds Overcast 600 ft
Windchill 18 °F
Dew Point 25 °F
Humidity 93%
Rainfall 0.00 in
Snow Depth Not available.
UV 0 out of 12
Pollen .10 out of 12
Air Quality Not available.
Flu Activity Not available.
METAR KOTG 260955Z AUTO 09007KT 10SM OVC006 M03/M04 A2987 RMK AO1

More Conditions Fewer Conditions

Pressure 29.87 in
Visibility 10.0 miles
Clouds Overcast 600 ft
Windchill 18 °F
Dew Point 25 °F
Humidity 93%
Rainfall 0.00 in
Snow Depth Not available.
UV 0 out of 12
Pollen .10 out of 12
Air Quality Not available.
Flu Activity Not available.
METAR KOTG 260955Z AUTO 09007KT 10SM OVC006 M03/M04 A2987 RMK AO1

More Conditions Fewer Conditions

10-Day Weather Forecast

Almanac

Astronomy

Nov. 26, 2014 Rise Set
Actual Time
Civil Twilight
Nautical Twilight
Astronomical Twilight
Moon
Length of Visible Light
Length of Day
Tomorrow will be .
, % of the Moon is Illuminated

Today's Extremes

State Highs State Lows

Community

WunderPhotos

Upload Photos

1,773,704 photos uploaded!

WunderBlogs® & News

Nearby

Air Quality

  Air Quality AQ Index Pollutant
Not available.

Snow Depth

Station Depth Elevation

Earthquake Activity

City Distance Mag. Time & Date
Minimum magnitude displayed is 2.5.

Coastal Water Temperatures

Place Temperature

Nearby Weather Stations